createdAt,value
2019-02-28T00:02:00.786Z,74.63
2019-02-28T00:04:31.887Z,79.87
2019-02-28T00:06:56.812Z,76.80
2019-02-28T00:09:25.663Z,58.80
2019-02-28T00:11:53.312Z,51.03
2019-02-28T00:14:20.599Z,74.70
2019-02-28T00:16:47.643Z,98.93
2019-02-28T00:19:15.438Z,50.97
2019-02-28T00:21:42.794Z,68.20
2019-02-28T00:24:09.820Z,43.63
2019-02-28T00:26:36.515Z,35.63
2019-02-28T00:29:03.310Z,74.37
2019-02-28T00:31:30.237Z,69.67
2019-02-28T00:33:57.237Z,100.23
2019-02-28T00:36:24.277Z,88.07
2019-02-28T00:38:51.509Z,77.27
2019-02-28T00:41:18.530Z,81.80
2019-02-28T00:43:45.638Z,68.17
2019-02-28T00:46:12.312Z,82.43
2019-02-28T00:48:39.582Z,80.90
2019-02-28T00:51:06.576Z,80.53
2019-02-28T00:53:37.400Z,86.17
2019-02-28T00:56:03.902Z,101.63
2019-02-28T00:58:30.583Z,93.33
2019-02-28T01:00:57.619Z,82.77
2019-02-28T01:03:27.435Z,91.67
2019-02-28T01:05:54.551Z,79.90
2019-02-28T01:08:22.227Z,81.93
2019-02-28T01:10:49.459Z,89.07
2019-02-28T01:13:17.008Z,90.73
2019-02-28T01:15:45.726Z,67.00
2019-02-28T01:18:13.884Z,91.00
2019-02-28T01:20:40.654Z,85.80
2019-02-28T01:23:07.930Z,81.67
2019-02-28T01:25:37.180Z,63.63
2019-02-28T01:28:04.906Z,84.77
2019-02-28T01:30:31.817Z,83.63
2019-02-28T01:32:58.482Z,61.97
2019-02-28T01:35:26.189Z,57.63
2019-02-28T01:37:53.956Z,63.10
2019-02-28T01:40:20.889Z,90.00
2019-02-28T01:42:48.206Z,87.62
2019-02-28T01:45:15.177Z,79.60
2019-02-28T01:47:42.322Z,79.37
2019-02-28T01:50:10.414Z,86.43
2019-02-28T01:52:37.216Z,62.35
2019-02-28T01:55:06.309Z,86.70
2019-02-28T01:57:35.222Z,92.10
2019-02-28T02:00:02.277Z,73.97
2019-02-28T02:02:29.906Z,95.97
2019-02-28T02:04:57.160Z,97.30
2019-02-28T02:07:24.979Z,89.77
2019-02-28T02:09:52.771Z,75.60
2019-02-28T02:12:20.593Z,98.13
2019-02-28T02:14:48.061Z,93.17
2019-02-28T02:17:14.989Z,100.00
2019-02-28T02:19:42.045Z,95.57
2019-02-28T02:22:10.228Z,92.10
2019-02-28T02:24:37.292Z,91.03
2019-02-28T02:27:04.603Z,91.93
2019-02-28T02:29:32.386Z,99.23
2019-02-28T02:32:02.383Z,94.63
2019-02-28T02:34:30.021Z,72.93
2019-02-28T02:36:57.508Z,97.03
2019-02-28T02:39:25.395Z,89.13
2019-02-28T02:41:52.048Z,88.93
2019-02-28T02:44:19.369Z,80.60
2019-02-28T02:46:46.351Z,76.93
2019-02-28T02:49:18.567Z,110.00
2019-02-28T02:51:49.056Z,71.03
2019-02-28T02:54:17.859Z,91.20
2019-02-28T02:56:42.052Z,103.10
2019-02-28T02:59:10.059Z,75.33
2019-02-28T03:01:37.337Z,80.53
2019-02-28T03:04:04.213Z,85.27
2019-02-28T03:06:31.299Z,82.53
2019-02-28T03:08:57.986Z,106.33
2019-02-28T03:11:25.942Z,94.90
2019-02-28T03:13:53.259Z,90.47
2019-02-28T03:16:20.093Z,100.63
2019-02-28T03:18:47.323Z,100.60
2019-02-28T03:21:15.494Z,94.73
2019-02-28T03:23:43.827Z,80.60
2019-02-28T03:26:10.757Z,81.02
2019-02-28T03:28:38.537Z,92.73
2019-02-28T03:31:11.579Z,109.52
2019-02-28T03:33:33.909Z,75.12
2019-02-28T03:36:00.818Z,104.43
2019-02-28T03:38:28.766Z,86.80
2019-02-28T03:40:55.975Z,95.05
2019-02-28T03:43:23.299Z,101.02
2019-02-28T03:45:51.110Z,106.00
2019-02-28T03:48:18.071Z,112.20
2019-02-28T03:50:44.759Z,111.90
2019-02-28T03:53:12.157Z,111.70
2019-02-28T03:55:40.788Z,165.30
2019-02-28T03:58:07.958Z,114.47
2019-02-28T04:00:36.072Z,104.72
2019-02-28T04:03:04.530Z,84.13
2019-02-28T04:05:31.243Z,102.12
2019-02-28T04:07:57.904Z,116.57
2019-02-28T04:10:25.238Z,123.45
2019-02-28T04:12:52.297Z,77.47
2019-02-28T04:15:19.997Z,123.40
2019-02-28T04:17:46.871Z,86.30
2019-02-28T04:20:14.185Z,91.80
2019-02-28T04:22:41.339Z,110.92
2019-02-28T04:25:10.146Z,100.42
2019-02-28T04:27:40.233Z,111.72
2019-02-28T04:30:08.866Z,110.63
2019-02-28T04:32:35.636Z,117.57
2019-02-28T04:35:04.153Z,83.22
2019-02-28T04:37:31.407Z,102.22
2019-02-28T04:39:58.558Z,129.00
2019-02-28T04:42:25.262Z,121.35
2019-02-28T04:44:52.628Z,113.15
2019-02-28T04:47:19.262Z,108.67
2019-02-28T04:49:46.518Z,83.22
2019-02-28T04:52:14.291Z,128.42
2019-02-28T04:54:40.982Z,125.38
2019-02-28T04:57:08.221Z,116.73
2019-02-28T04:59:36.339Z,80.95
2019-02-28T05:02:03.506Z,114.28
2019-02-28T05:04:33.192Z,131.10
2019-02-28T05:06:59.387Z,122.22
2019-02-28T05:09:26.191Z,97.97
2019-02-28T05:11:52.991Z,55.28
2019-02-28T05:14:23.379Z,93.22
2019-02-28T05:16:48.465Z,133.82
2019-02-28T05:19:16.422Z,124.87
2019-02-28T05:21:43.100Z,89.15
2019-02-28T05:24:09.809Z,71.90
2019-02-28T05:26:36.518Z,109.97
2019-02-28T05:29:04.402Z,79.03
2019-02-28T05:31:31.307Z,102.85
2019-02-28T05:33:58.559Z,99.62
2019-02-28T05:36:25.500Z,133.50
2019-02-28T05:38:53.615Z,36.90
2019-02-28T05:41:22.506Z,78.12
2019-02-28T05:43:49.968Z,138.82
2019-02-28T05:46:17.017Z,143.02
2019-02-28T05:48:44.554Z,130.07
2019-02-28T05:51:12.126Z,137.20
2019-02-28T05:53:41.330Z,135.70
2019-02-28T05:56:07.462Z,95.83
2019-02-28T05:58:34.488Z,140.15
2019-02-28T06:01:01.147Z,134.82
2019-02-28T06:03:30.368Z,99.60
2019-02-28T06:05:57.770Z,109.48
2019-02-28T06:08:24.809Z,125.95
2019-02-28T06:10:56.060Z,116.50
2019-02-28T06:13:21.886Z,112.77
2019-02-28T06:15:49.022Z,83.65
2019-02-28T06:18:16.318Z,123.58
2019-02-28T06:20:43.734Z,154.27
2019-02-28T06:23:10.425Z,148.47
2019-02-28T06:25:38.183Z,164.80
2019-02-28T06:28:04.881Z,89.60
2019-02-28T06:30:33.227Z,180.65
2019-02-28T06:33:00.741Z,167.90
2019-02-28T06:35:28.177Z,145.90
2019-02-28T06:37:54.865Z,190.12
2019-02-28T06:40:22.632Z,182.85
2019-02-28T06:42:50.038Z,110.72
2019-02-28T06:45:17.723Z,157.30
2019-02-28T06:47:48.604Z,280.83
2019-02-28T06:50:15.088Z,173.30
2019-02-28T06:52:42.494Z,144.68
2019-02-28T06:55:12.591Z,191.00
2019-02-28T06:57:41.133Z,159.55
2019-02-28T07:00:10.432Z,147.15
2019-02-28T07:02:37.219Z,104.65
2019-02-28T07:05:04.795Z,113.95
2019-02-28T07:07:32.200Z,117.22
2019-02-28T07:09:59.541Z,218.65
2019-02-28T07:12:29.814Z,102.53
2019-02-28T07:14:55.347Z,214.70
2019-02-28T07:17:22.416Z,195.40
2019-02-28T07:19:49.331Z,148.70
2019-02-28T07:22:19.609Z,214.90
2019-02-28T07:24:46.127Z,126.75
2019-02-28T07:27:13.342Z,202.05
2019-02-28T07:29:42.664Z,118.33
2019-02-28T07:32:09.757Z,213.05
2019-02-28T07:34:36.958Z,105.40
2019-02-28T07:37:03.750Z,231.75
2019-02-28T07:39:31.477Z,226.02
2019-02-28T07:41:58.793Z,213.95
2019-02-28T07:44:28.026Z,169.10
2019-02-28T07:46:55.686Z,173.15
2019-02-28T07:49:22.375Z,160.15
2019-02-28T07:51:49.403Z,134.25
2019-02-28T07:54:20.414Z,176.90
2019-02-28T07:56:47.561Z,210.55
2019-02-28T07:59:14.909Z,246.72
2019-02-28T08:01:42.057Z,222.17
2019-02-28T08:04:09.097Z,212.00
2019-02-28T08:06:39.232Z,163.18
2019-02-28T08:09:20.072Z,192.87
2019-02-28T08:11:47.586Z,176.82
2019-02-28T08:14:14.609Z,200.63
2019-02-28T08:16:41.930Z,155.63
2019-02-28T08:19:09.150Z,159.85
2019-02-28T08:21:36.786Z,197.45
2019-02-28T08:24:05.375Z,193.02
2019-02-28T08:26:33.357Z,164.50
2019-02-28T08:29:00.641Z,186.18
2019-02-28T08:31:28.296Z,123.40
2019-02-28T08:33:57.775Z,211.10
2019-02-28T08:36:26.128Z,184.57
2019-02-28T08:38:53.693Z,173.43
2019-02-28T08:41:22.570Z,165.52
2019-02-28T08:43:50.137Z,194.67
2019-02-28T08:46:17.298Z,187.25
2019-02-28T08:48:44.608Z,149.47
2019-02-28T08:51:12.409Z,173.28
2019-02-28T08:53:40.376Z,113.07
2019-02-28T08:56:07.412Z,163.28
2019-02-28T08:58:37.752Z,150.35
2019-02-28T09:01:06.541Z,163.80
2019-02-28T09:03:33.458Z,166.03
2019-02-28T09:06:04.195Z,157.30
2019-02-28T09:08:31.166Z,160.22
2019-02-28T09:10:58.648Z,110.42
2019-02-28T09:13:25.646Z,146.13
2019-02-28T09:15:53.013Z,121.87
2019-02-28T09:18:19.721Z,99.87
2019-02-28T09:20:47.115Z,107.25
2019-02-28T09:23:15.185Z,110.17
2019-02-28T09:25:43.523Z,115.03
2019-02-28T09:28:13.018Z,107.45
2019-02-28T09:30:41.049Z,84.00
2019-02-28T09:33:08.063Z,95.85
2019-02-28T09:35:35.770Z,116.50
2019-02-28T09:38:06.272Z,95.95
2019-02-28T09:40:31.783Z,102.35
2019-02-28T09:42:59.459Z,81.93
2019-02-28T09:45:26.165Z,96.70
2019-02-28T09:47:52.955Z,123.87
2019-02-28T09:50:22.477Z,84.75
2019-02-28T09:52:49.419Z,89.90
2019-02-28T09:55:17.222Z,72.67
2019-02-28T09:57:44.918Z,47.47
2019-02-28T10:00:14.814Z,79.07
2019-02-28T10:02:44.050Z,79.45
2019-02-28T10:05:11.779Z,61.85
2019-02-28T10:07:38.761Z,60.78
2019-02-28T10:10:08.703Z,69.92
2019-02-28T10:12:35.681Z,63.83
2019-02-28T10:15:07.039Z,67.15
2019-02-28T10:17:34.258Z,69.73
2019-02-28T10:20:01.421Z,61.43
2019-02-28T10:22:28.887Z,60.97
2019-02-28T10:24:56.552Z,73.13
2019-02-28T10:27:26.892Z,49.27
2019-02-28T10:29:52.394Z,60.60
2019-02-28T10:32:19.366Z,73.43
2019-02-28T10:34:47.321Z,63.53
2019-02-28T10:37:15.162Z,55.73
2019-02-28T10:39:43.818Z,68.25
2019-02-28T10:42:11.929Z,63.07
2019-02-28T10:44:39.889Z,54.93
2019-02-28T10:47:06.991Z,56.57
2019-02-28T10:49:33.777Z,54.97
2019-02-28T10:52:01.432Z,168.73
2019-02-28T10:54:29.218Z,48.67
2019-02-28T10:56:56.448Z,61.70
2019-02-28T10:59:24.395Z,47.50
2019-02-28T11:01:52.186Z,61.30
2019-02-28T11:04:19.759Z,48.30
2019-02-28T11:06:46.974Z,48.37
2019-02-28T11:09:21.814Z,51.63
2019-02-28T11:11:48.305Z,46.70
2019-02-28T11:14:15.683Z,30.20
2019-02-28T11:16:42.967Z,36.17
2019-02-28T11:19:10.179Z,32.27
2019-02-28T11:21:37.669Z,60.77
2019-02-28T11:24:04.715Z,53.05
2019-02-28T11:26:32.796Z,51.05
2019-02-28T11:29:03.159Z,53.90
2019-02-28T11:31:29.389Z,55.58
2019-02-28T11:33:57.122Z,50.50
2019-02-28T11:36:25.297Z,52.70
2019-02-28T11:38:52.526Z,38.93
2019-02-28T11:41:21.641Z,42.07
2019-02-28T11:43:48.435Z,61.10
2019-02-28T11:46:15.700Z,41.13
2019-02-28T11:48:42.869Z,41.97
2019-02-28T11:51:09.659Z,62.50
2019-02-28T11:53:40.402Z,57.83
2019-02-28T11:56:05.742Z,58.83
2019-02-28T11:58:33.097Z,40.97
2019-02-28T12:01:02.255Z,50.20
2019-02-28T12:03:31.830Z,54.90
2019-02-28T12:05:57.918Z,55.93
2019-02-28T12:08:24.690Z,41.97
2019-02-28T12:10:51.992Z,51.17
2019-02-28T12:13:20.578Z,57.57
2019-02-28T12:15:47.795Z,56.80
2019-02-28T12:18:14.822Z,34.57
2019-02-28T12:20:41.499Z,41.63
2019-02-28T12:23:08.927Z,32.83
2019-02-28T12:25:35.691Z,26.87
2019-02-28T12:28:06.358Z,42.73
2019-02-28T12:30:32.791Z,32.13
2019-02-28T12:33:00.477Z,40.93
2019-02-28T12:35:27.723Z,52.70
2019-02-28T12:37:55.050Z,45.07
2019-02-28T12:40:24.233Z,24.97
2019-02-28T12:42:51.342Z,56.53
2019-02-28T12:45:25.173Z,39.08
2019-02-28T12:47:51.908Z,34.48
2019-02-28T12:50:19.432Z,52.93
2019-02-28T12:52:49.890Z,41.97
2019-02-28T12:55:18.073Z,38.47
2019-02-28T12:57:46.298Z,38.27
2019-02-28T13:00:25.097Z,23.93
2019-02-28T13:02:52.658Z,25.93
2019-02-28T13:05:19.950Z,45.07
2019-02-28T13:07:48.582Z,37.00
2019-02-28T13:10:17.122Z,44.73
2019-02-28T13:12:48.829Z,38.73
2019-02-28T13:15:15.335Z,36.63
2019-02-28T13:17:42.745Z,23.57
2019-02-28T13:20:12.950Z,31.20
2019-02-28T13:22:40.918Z,24.23
2019-02-28T13:25:08.485Z,44.93
2019-02-28T13:27:35.832Z,46.67
2019-02-28T13:30:05.496Z,45.93
2019-02-28T13:32:38.288Z,42.20
2019-02-28T13:35:07.442Z,34.37
2019-02-28T13:37:33.694Z,36.70
2019-02-28T13:40:04.341Z,40.17
2019-02-28T13:42:30.838Z,32.40
2019-02-28T13:44:57.529Z,26.70
2019-02-28T13:47:24.718Z,36.93
2019-02-28T13:49:52.429Z,30.23
2019-02-28T13:52:20.914Z,35.10
2019-02-28T13:54:48.114Z,48.33
2019-02-28T13:57:15.423Z,46.60
2019-02-28T13:59:42.118Z,36.67
2019-02-28T14:02:09.732Z,34.63
2019-02-28T14:04:36.646Z,43.50
2019-02-28T14:07:03.880Z,22.27
2019-02-28T14:09:31.330Z,41.47
2019-02-28T14:11:58.674Z,34.80
2019-02-28T14:14:26.495Z,37.60
2019-02-28T14:16:53.634Z,39.27
2019-02-28T14:19:21.467Z,24.63
2019-02-28T14:21:49.429Z,37.80
2019-02-28T14:24:16.743Z,32.30
2019-02-28T14:26:46.542Z,50.27
2019-02-28T14:29:13.143Z,35.43
2019-02-28T14:31:40.344Z,38.97
2019-02-28T14:34:07.735Z,45.20
2019-02-28T14:36:35.322Z,43.70
2019-02-28T14:39:04.694Z,44.83
2019-02-28T14:41:34.100Z,36.10
2019-02-28T14:44:01.451Z,37.20
2019-02-28T14:46:29.226Z,29.10
2019-02-28T14:48:57.191Z,45.37
2019-02-28T14:51:25.485Z,41.43
2019-02-28T14:53:52.625Z,36.43
2019-02-28T14:56:19.318Z,24.77
2019-02-28T14:58:46.289Z,30.97
2019-02-28T15:01:16.801Z,41.40
2019-02-28T15:03:42.704Z,28.62
2019-02-28T15:06:09.896Z,36.43
2019-02-28T15:08:36.967Z,33.97
2019-02-28T15:11:06.591Z,34.97
2019-02-28T15:13:34.280Z,23.87
2019-02-28T15:16:01.663Z,21.97
2019-02-28T15:18:28.894Z,11.87
2019-02-28T15:20:55.573Z,36.07
2019-02-28T15:23:22.719Z,44.80
2019-02-28T15:25:50.768Z,25.12
2019-02-28T15:28:18.783Z,34.80
2019-02-28T15:30:45.450Z,32.07
2019-02-28T15:33:12.970Z,36.05
2019-02-28T15:35:40.603Z,39.58
2019-02-28T15:38:09.100Z,27.70
2019-02-28T15:40:37.283Z,28.93
2019-02-28T15:43:04.508Z,27.13
2019-02-28T15:45:31.285Z,25.30
2019-02-28T15:47:59.152Z,27.52
2019-02-28T15:50:26.826Z,35.10
2019-02-28T15:52:55.047Z,35.77
2019-02-28T15:55:22.962Z,27.73
2019-02-28T15:57:49.932Z,38.27
2019-02-28T16:00:22.105Z,30.20
2019-02-28T16:02:48.774Z,31.53
2019-02-28T16:05:16.781Z,24.03
2019-02-28T16:07:43.653Z,21.13
2019-02-28T16:10:12.648Z,30.57
2019-02-28T16:12:39.717Z,25.30
2019-02-28T16:15:08.735Z,24.90
2019-02-28T16:17:36.817Z,21.77
2019-02-28T16:20:05.791Z,21.90
2019-02-28T16:22:33.034Z,29.13
2019-02-28T16:25:00.831Z,25.53
2019-02-28T16:27:29.611Z,39.70
2019-02-28T16:29:58.686Z,27.90
2019-02-28T16:32:25.383Z,33.70
2019-02-28T16:34:52.045Z,12.00
2019-02-28T16:37:18.727Z,24.27
2019-02-28T16:39:49.104Z,27.83
2019-02-28T16:42:17.545Z,25.30
2019-02-28T16:44:44.478Z,22.73
2019-02-28T16:47:11.615Z,42.90
2019-02-28T16:49:41.350Z,30.20
2019-02-28T16:52:07.929Z,21.95
2019-02-28T16:54:35.787Z,24.77
2019-02-28T16:57:02.575Z,34.53
2019-02-28T16:59:31.725Z,25.50
2019-02-28T17:01:59.541Z,37.47
2019-02-28T17:04:26.562Z,22.20
2019-02-28T17:06:55.507Z,37.97
2019-02-28T17:09:30.319Z,26.42
2019-02-28T17:12:06.379Z,35.90
2019-02-28T17:14:33.911Z,32.00
2019-02-28T17:17:14.111Z,34.37
2019-02-28T17:19:41.810Z,44.70
2019-02-28T17:22:09.158Z,27.77
2019-02-28T17:24:36.487Z,28.00
2019-02-28T17:27:22.964Z,36.43
2019-02-28T17:30:09.422Z,43.87
2019-02-28T17:32:36.694Z,51.87
2019-02-28T17:35:05.595Z,37.17
2019-02-28T17:37:32.395Z,32.03
2019-02-28T17:39:59.466Z,32.83
2019-02-28T17:42:26.469Z,28.57
2019-02-28T17:45:01.845Z,27.07
2019-02-28T17:48:12.725Z,30.83
2019-02-28T17:50:51.350Z,32.43
2019-02-28T17:53:32.652Z,34.90
2019-02-28T17:56:32.120Z,33.27
2019-02-28T17:59:39.242Z,31.93
2019-02-28T18:02:46.742Z,32.37
2019-02-28T18:05:50.711Z,30.17
2019-02-28T18:08:27.200Z,36.80
2019-02-28T18:11:09.305Z,29.07
2019-02-28T18:14:05.812Z,28.57
2019-02-28T18:17:09.979Z,37.13
2019-02-28T18:20:28.978Z,33.60
2019-02-28T18:23:41.794Z,30.30
2019-02-28T18:26:52.396Z,29.30
2019-02-28T18:30:01.146Z,36.85
2019-02-28T18:32:33.034Z,60.90
2019-02-28T18:34:58.809Z,49.53
2019-02-28T18:37:25.611Z,47.37
2019-02-28T18:39:52.981Z,67.53
2019-02-28T18:42:20.102Z,57.50
2019-02-28T18:44:47.530Z,29.20
2019-02-28T18:47:14.940Z,32.80
2019-02-28T18:49:42.843Z,41.60
2019-02-28T18:52:20.267Z,46.80
2019-02-28T18:55:05.714Z,318.33
2019-02-28T18:57:40.895Z,46.37
2019-02-28T19:00:20.188Z,33.63
2019-02-28T19:02:49.668Z,22.95
2019-02-28T19:05:23.091Z,39.48
2019-02-28T19:07:59.888Z,40.60
2019-02-28T19:10:32.468Z,41.00
2019-02-28T19:13:01.690Z,43.33
2019-02-28T19:15:28.490Z,62.45
2019-02-28T19:18:01.199Z,46.23
2019-02-28T19:20:33.074Z,20.47
2019-02-28T19:23:04.088Z,55.98
2019-02-28T19:25:36.574Z,74.80
2019-02-28T19:28:04.298Z,38.23
2019-02-28T19:30:32.414Z,26.93
2019-02-28T19:33:02.360Z,39.60
2019-02-28T19:35:36.618Z,37.05
2019-02-28T19:38:12.144Z,28.98
2019-02-28T19:40:50.446Z,41.85
2019-02-28T19:43:20.968Z,30.77
2019-02-28T19:45:48.430Z,25.82
2019-02-28T19:48:15.526Z,31.20
2019-02-28T19:50:46.626Z,23.90
2019-02-28T19:53:18.880Z,27.90
2019-02-28T19:55:48.275Z,33.00
2019-02-28T19:58:21.053Z,27.45
2019-02-28T20:00:59.277Z,44.23
2019-02-28T20:03:41.692Z,33.80
2019-02-28T20:09:04.609Z,34.03
2019-02-28T20:11:33.186Z,33.15
2019-02-28T20:14:00.756Z,15.70
2019-02-28T20:16:28.560Z,29.67
2019-02-28T20:18:55.912Z,16.45
2019-02-28T20:21:23.175Z,16.90
2019-02-28T20:23:51.233Z,24.95
2019-02-28T20:26:19.002Z,34.33
2019-02-28T20:28:45.817Z,23.92
2019-02-28T20:31:12.762Z,29.07
2019-02-28T20:33:40.206Z,24.70
2019-02-28T20:36:07.026Z,32.38
2019-02-28T20:38:34.415Z,21.80
2019-02-28T20:41:01.613Z,33.02
2019-02-28T20:43:28.415Z,23.77
2019-02-28T20:45:55.991Z,27.60
2019-02-28T20:48:23.019Z,22.45
2019-02-28T20:50:50.149Z,28.15
2019-02-28T20:53:17.617Z,29.82
2019-02-28T20:55:44.653Z,24.85
2019-02-28T20:58:12.238Z,27.93
2019-02-28T21:00:39.916Z,361.37
2019-02-28T21:03:07.086Z,40.43
2019-02-28T21:05:34.197Z,45.63
2019-02-28T21:08:01.249Z,45.20
2019-02-28T21:10:28.592Z,32.03
2019-02-28T21:12:55.889Z,21.00
2019-02-28T21:15:24.671Z,21.27
2019-02-28T21:17:51.578Z,27.00
2019-02-28T21:20:19.025Z,25.30
2019-02-28T21:22:45.842Z,29.70
2019-02-28T21:25:12.806Z,32.48
2019-02-28T21:27:39.583Z,27.75
2019-02-28T21:30:15.442Z,21.70
2019-02-28T21:32:42.790Z,40.35
2019-02-28T21:35:10.373Z,32.47
2019-02-28T21:37:37.701Z,31.02
2019-02-28T21:40:06.934Z,23.75
2019-02-28T21:42:35.958Z,32.13
2019-02-28T21:45:04.277Z,30.90
2019-02-28T21:47:32.889Z,27.70
2019-02-28T21:50:00.436Z,29.18
2019-02-28T21:52:28.321Z,52.73
2019-02-28T21:54:55.558Z,31.73
2019-02-28T21:57:22.211Z,29.37
2019-02-28T21:59:49.679Z,26.03
2019-02-28T22:02:16.379Z,35.50
2019-02-28T22:04:44.142Z,42.62
2019-02-28T22:07:11.598Z,29.27
2019-02-28T22:09:38.935Z,34.70
2019-02-28T22:12:05.976Z,31.75
2019-02-28T22:14:32.650Z,32.28
2019-02-28T22:16:59.630Z,37.35
2019-02-28T22:19:27.160Z,47.65
2019-02-28T22:21:54.802Z,28.83
2019-02-28T22:24:22.055Z,35.92
2019-02-28T22:26:49.395Z,47.88
2019-02-28T22:29:16.840Z,39.13
2019-02-28T22:32:02.547Z,25.35
2019-02-28T22:34:49.207Z,28.80
2019-02-28T22:37:15.999Z,47.65
2019-02-28T22:39:42.780Z,25.52
2019-02-28T22:42:09.478Z,38.65
2019-02-28T22:44:36.507Z,33.58
2019-02-28T22:47:03.400Z,31.57
2019-02-28T22:49:33.653Z,26.68
2019-02-28T22:52:00.707Z,40.83
2019-02-28T22:54:27.394Z,43.83
2019-02-28T22:56:54.078Z,30.43
2019-02-28T22:59:22.162Z,31.10
2019-02-28T23:01:49.192Z,33.48
2019-02-28T23:04:15.889Z,34.05
2019-02-28T23:06:43.199Z,34.88
2019-02-28T23:09:10.390Z,36.65
2019-02-28T23:11:37.791Z,51.53
2019-02-28T23:14:05.194Z,36.60
2019-02-28T23:16:32.124Z,31.55
2019-02-28T23:18:59.760Z,44.90
2019-02-28T23:21:26.891Z,44.50
2019-02-28T23:23:53.612Z,43.40
2019-02-28T23:26:25.052Z,35.68
2019-02-28T23:29:09.106Z,41.25
2019-02-28T23:32:06.581Z,39.53
2019-02-28T23:34:39.930Z,39.13
2019-02-28T23:37:07.081Z,42.20
2019-02-28T23:39:34.654Z,45.30
2019-02-28T23:42:02.605Z,36.90
2019-02-28T23:44:30.308Z,42.48
2019-02-28T23:46:57.716Z,42.93
2019-02-28T23:49:24.445Z,47.10
2019-02-28T23:51:51.370Z,37.95
2019-02-28T23:54:18.374Z,56.85
2019-02-28T23:56:45.682Z,45.67
2019-02-28T23:59:13.354Z,66.20
